Terminal Aerodrome Forecast
Issued by NWS Grand Rapids, MI

Home | Current Version | Previous Version | Text Only | Print | Product List | Glossary On
Versions: 1 2 3 4 5 6 7 8 9 10 11 12 13 14 15
306
FTUS43 KGRR 262342
TAFGRR
TAF
KGRR 262342Z 2700/2724 34005KT P6SM BKN150
     FM270900 09005KT P6SM -SHRA BKN060
     FM271300 12007KT 5SM -SHRA BR VCTS BKN035CB
     FM271900 17009KT P6SM VCSH BKN060=

USA.gov is the U.S. government's official web portal to all federal, state and local government web resources and services.